Time;durP1;ratioP1;P1;durP2;ratioP2;P2;SDS_P1;SDS_P2;PMS_P1;PMS_P2;Temp;Humidity;BMP_temperature;BMP_pressure;BME280_temperature;BME280_humidity;BME280_pressure;Samples;Min_cycle;Max_cycle;Signal;HPM_P1;HPM_P2
2021/12/05 00:24:11;;;;;;;17.60;2.75;;;5.20;99.90;;;;;;4995040;28;20038;-83
2021/12/05 00:26:38;;;;;;;15.02;3.95;;;5.20;99.90;;;;;;4993456;28;20045;-83
2021/12/05 00:29:18;;;;;;;11.43;2.60;;;5.20;99.90;;;;;;4983769;28;20027;-83
2021/12/05 01:09:27;;;;;;;21.45;4.32;;;5.30;99.90;;;;;;4982392;28;20041;-87
2021/12/05 01:16:44;;;;;;;15.45;3.42;;;5.30;99.90;;;;;;4994846;28;20117;-86
2021/12/05 01:19:12;;;;;;;10.75;3.47;;;5.30;99.90;;;;;;4989103;28;20373;-86
2021/12/05 01:21:40;;;;;;;20.05;3.25;;;5.40;99.90;;;;;;4994865;28;20361;-84
2021/12/05 01:26:43;;;;;;;11.77;2.58;;;5.30;99.90;;;;;;4977619;28;20105;-86
2021/12/05 01:32:01;;;;;;;19.80;3.65;;;5.30;99.90;;;;;;4997178;28;20085;-86
2021/12/05 01:45:22;;;;;;;10.63;3.22;;;5.20;99.90;;;;;;4986589;28;20154;-86
2021/12/05 01:53:49;;;;;;;16.83;2.95;;;5.30;99.90;;;;;;4990349;28;20030;-86
2021/12/05 02:15:26;;;;;;;15.32;2.85;;;5.10;99.90;;;;;;4998602;28;20030;-86
2021/12/05 02:37:05;;;;;;;13.50;3.22;;;4.90;99.90;;;;;;4990172;28;20043;-85
2021/12/05 02:42:06;;;;;;;5.68;2.55;;;4.70;99.90;;;;;;4979521;28;20134;-85
2021/12/05 02:44:33;;;;;;;10.68;3.05;;;4.60;99.90;;;;;;4997421;28;20034;-86
2021/12/05 02:47:07;;;;;;;8.65;2.70;;;4.60;99.90;;;;;;4982457;28;20065;-86
2021/12/05 02:49:36;;;;;;;13.02;3.08;;;4.60;99.90;;;;;;4978357;28;20039;-86
2021/12/05 02:52:07;;;;;;;6.93;2.47;;;4.60;99.90;;;;;;4979032;28;20491;-86
2021/12/05 02:54:39;;;;;;;13.27;3.28;;;4.60;99.90;;;;;;4988418;28;20022;-86
2021/12/05 02:57:06;;;;;;;8.75;3.63;;;4.60;99.90;;;;;;4997350;28;20053;-85
2021/12/05 03:02:14;;;;;;;12.88;2.42;;;4.40;99.90;;;;;;4997430;28;20042;-85
2021/12/05 03:04:44;;;;;;;14.65;2.45;;;4.40;99.90;;;;;;4997796;28;20022;-86
2021/12/05 03:07:11;;;;;;;20.98;2.80;;;4.40;99.90;;;;;;4998448;28;20041;-86
2021/12/05 03:09:40;;;;;;;10.50;2.33;;;4.40;99.90;;;;;;4997893;28;20042;-85
2021/12/05 03:12:10;;;;;;;7.95;2.35;;;4.30;99.90;;;;;;4978143;28;20034;-87
2021/12/05 03:14:37;;;;;;;21.83;3.55;;;4.30;99.90;;;;;;4996865;28;20046;-86
2021/12/05 03:17:03;;;;;;;13.27;3.75;;;4.40;99.90;;;;;;4997637;28;20088;-87
2021/12/05 03:19:29;;;;;;;15.82;2.70;;;4.40;99.90;;;;;;4992693;28;20022;-86
2021/12/05 03:21:55;;;;;;;7.50;2.33;;;4.50;99.90;;;;;;4991864;28;20045;-86
2021/12/05 03:24:23;;;;;;;5.70;2.38;;;4.60;99.90;;;;;;4996750;28;20049;-86
2021/12/05 03:26:51;;;;;;;11.23;2.13;;;4.70;99.90;;;;;;4987231;28;20035;-87
2021/12/05 03:29:19;;;;;;;15.32;2.28;;;4.80;99.90;;;;;;4992404;28;20048;-86
2021/12/05 03:31:46;;;;;;;7.95;2.33;;;4.80;99.90;;;;;;4996919;28;20066;-85
2021/12/05 03:34:15;;;;;;;11.02;3.10;;;4.90;99.90;;;;;;4992736;28;20030;-87
2021/12/05 03:36:49;;;;;;;12.05;2.63;;;5.00;99.90;;;;;;4991594;28;20018;-87
2021/12/05 03:39:16;;;;;;;5.68;1.95;;;5.00;99.90;;;;;;4986709;28;20070;-86
2021/12/05 03:41:43;;;;;;;10.63;1.80;;;5.00;99.90;;;;;;4988618;28;20459;-86
2021/12/05 03:44:12;;;;;;;8.60;2.45;;;5.00;99.90;;;;;;4994627;28;20038;-86
2021/12/05 03:46:39;;;;;;;17.55;2.58;;;5.00;99.90;;;;;;4988232;28;20027;-86
2021/12/05 03:49:08;;;;;;;13.73;2.35;;;5.00;99.90;;;;;;4991547;28;20042;-87
2021/12/05 03:51:39;;;;;;;13.57;2.63;;;5.00;99.90;;;;;;4978955;28;20031;-86
2021/12/05 03:54:06;;;;;;;6.05;1.90;;;4.90;99.90;;;;;;4988780;28;20509;-86
2021/12/05 03:56:59;;;;;;;11.02;2.45;;;4.90;99.90;;;;;;5071119;27;1247723;-85
2021/12/05 03:59:28;;;;;;;12.52;3.13;;;4.90;99.90;;;;;;5074522;28;20033;-87
2021/12/05 04:01:55;;;;;;;5.95;2.38;;;4.90;99.90;;;;;;5072432;28;20435;-86
2021/12/05 04:04:21;;;;;;;18.90;3.22;;;4.90;99.90;;;;;;5072511;28;20040;-86
2021/12/05 04:06:48;;;;;;;9.70;2.70;;;5.00;99.90;;;;;;5071751;28;20033;-86
2021/12/05 04:09:16;;;;;;;17.90;3.22;;;4.90;99.90;;;;;;5075697;28;20388;-85
2021/12/05 04:11:47;;;;;;;10.83;2.27;;;5.00;99.90;;;;;;5074081;28;20035;-86
2021/12/05 04:14:14;;;;;;;12.55;3.55;;;4.90;99.90;;;;;;5074965;28;20020;-86
2021/12/05 04:16:41;;;;;;;9.93;3.35;;;5.00;99.90;;;;;;5074429;28;20036;-85
2021/12/05 04:19:07;;;;;;;16.20;3.00;;;5.00;99.90;;;;;;5074069;28;20020;-85
2021/12/05 04:21:36;;;;;;;9.20;2.80;;;5.00;99.90;;;;;;5075029;28;20135;-85
2021/12/05 04:24:05;;;;;;;13.90;3.05;;;5.00;99.90;;;;;;5074094;28;20035;-85
2021/12/05 04:26:31;;;;;;;14.27;3.30;;;5.10;99.90;;;;;;5093200;28;20082;-84
2021/12/05 04:28:56;;;;;;;8.35;3.70;;;5.10;99.90;;;;;;5073992;28;20032;-85
2021/12/05 04:31:22;;;;;;;13.32;3.33;;;5.10;99.90;;;;;;5074148;28;20205;-84
2021/12/05 04:33:50;;;;;;;11.07;3.03;;;5.10;99.90;;;;;;5091368;28;20036;-85
2021/12/05 04:36:16;;;;;;;12.25;3.45;;;5.10;99.90;;;;;;5074681;28;20048;-86
2021/12/05 04:38:42;;;;;;;9.38;4.07;;;5.10;99.90;;;;;;5074333;28;20056;-86
2021/12/05 04:41:07;;;;;;;6.18;3.10;;;5.10;99.90;;;;;;5086374;28;20412;-87
2021/12/05 04:43:38;;;;;;;9.57;3.78;;;5.20;99.90;;;;;;5074560;28;20090;-85
2021/12/05 04:46:13;;;;;;;7.43;3.38;;;5.20;99.90;;;;;;5052385;28;20037;-86
2021/12/05 04:48:40;;;;;;;14.90;3.70;;;5.20;99.90;;;;;;5053366;28;20120;-85
2021/12/05 04:51:06;;;;;;;14.48;4.05;;;5.20;99.90;;;;;;5068123;28;20044;-85
2021/12/05 04:53:32;;;;;;;8.32;3.10;;;5.20;99.90;;;;;;5053955;28;20448;-85
2021/12/05 04:55:58;;;;;;;15.77;3.47;;;5.30;99.90;;;;;;5083221;28;20074;-85
2021/12/05 04:58:25;;;;;;;18.20;4.07;;;5.20;99.90;;;;;;5089778;28;20461;-85
2021/12/05 05:00:53;;;;;;;13.38;3.55;;;5.20;99.90;;;;;;5092700;28;20499;-84
2021/12/05 05:03:19;;;;;;;5.95;3.20;;;5.20;99.90;;;;;;5093635;28;20401;-86
2021/12/05 05:06:10;;;;;;;7.15;3.03;;;5.20;99.90;;;;;;5075688;28;20008;-85
2021/12/05 05:08:31;;;;;;;13.40;3.28;;;5.20;99.90;;;;;;5089000;28;20036;-85
2021/12/05 05:11:05;;;;;;;7.15;3.65;;;5.20;99.90;;;;;;5079103;28;20025;-83
2021/12/05 05:13:32;;;;;;;16.30;3.53;;;5.30;99.90;;;;;;5077944;28;20040;-83
2021/12/05 05:15:58;;;;;;;9.00;3.40;;;5.30;99.90;;;;;;5077088;28;20033;-86
2021/12/05 05:18:28;;;;;;;8.55;3.25;;;5.30;99.90;;;;;;5058226;28;20025;-85
2021/12/05 05:21:27;;;;;;;9.15;2.75;;;5.30;99.90;;;;;;5058436;28;20401;-86
2021/12/05 05:23:59;;;;;;;8.55;3.13;;;5.30;99.90;;;;;;5074688;28;20025;-86
2021/12/05 05:26:49;;;;;;;13.00;4.15;;;5.20;99.90;;;;;;5079297;28;20017;-85
2021/12/05 05:47:50;;;;;;;8.93;3.58;;;5.30;99.90;;;;;;5098754;28;20027;-86
2021/12/05 05:50:18;;;;;;;9.23;3.75;;;5.30;99.90;;;;;;5066076;28;20039;-85
2021/12/05 05:52:44;;;;;;;10.18;4.68;;;5.30;99.90;;;;;;5082061;28;20025;-85
2021/12/05 05:55:11;;;;;;;12.27;4.00;;;5.30;99.90;;;;;;5079695;28;20031;-86
2021/12/05 05:57:46;;;;;;;9.50;3.47;;;5.30;99.90;;;;;;5055534;28;20076;-84
2021/12/05 06:00:19;;;;;;;8.35;3.38;;;5.30;99.90;;;;;;5070604;28;20497;-84
2021/12/05 06:05:50;;;;;;;14.43;3.65;;;5.40;99.90;;;;;;5070794;28;20090;-85
2021/12/05 06:08:16;;;;;;;8.05;3.95;;;5.40;99.90;;;;;;5076274;28;20024;-84
2021/12/05 06:10:41;;;;;;;16.48;4.72;;;5.50;99.90;;;;;;5059600;28;20484;-84
2021/12/05 06:13:07;;;;;;;13.40;4.30;;;5.40;99.90;;;;;;5082058;28;20021;-84
2021/12/05 06:15:33;;;;;;;8.70;4.32;;;5.40;99.90;;;;;;5061441;28;20527;-84
2021/12/05 06:17:59;;;;;;;7.38;3.97;;;5.50;99.90;;;;;;5060054;28;20033;-83
2021/12/05 06:20:27;;;;;;;8.93;4.18;;;5.50;99.90;;;;;;5074911;28;20052;-84
2021/12/05 06:22:54;;;;;;;7.53;3.85;;;5.50;99.90;;;;;;5061487;28;20060;-85
2021/12/05 06:25:23;;;;;;;7.50;4.18;;;5.50;99.90;;;;;;5069973;28;20037;-84
2021/12/05 06:27:56;;;;;;;13.20;4.80;;;5.50;99.90;;;;;;5077038;28;20111;-84
2021/12/05 06:41:47;;;;;;;13.63;4.30;;;5.50;99.90;;;;;;5076944;28;20138;-85
2021/12/05 06:46:57;;;;;;;8.63;4.40;;;5.50;99.90;;;;;;5076785;28;20059;-84
2021/12/05 06:49:23;;;;;;;7.55;4.65;;;5.50;99.90;;;;;;5058024;28;20040;-83
2021/12/05 06:51:49;;;;;;;13.38;4.75;;;5.60;99.90;;;;;;5076131;28;20036;-84
2021/12/05 06:54:15;;;;;;;6.43;4.32;;;5.60;99.90;;;;;;5075984;28;20028;-81
2021/12/05 06:56:40;;;;;;;9.43;4.70;;;5.60;99.90;;;;;;5075521;28;20044;-83
2021/12/05 06:59:06;;;;;;;9.13;4.90;;;5.60;99.90;;;;;;5076112;28;20107;-82
2021/12/05 07:01:32;;;;;;;11.18;5.20;;;5.60;99.90;;;;;;5075161;28;20016;-85
2021/12/05 07:04:05;;;;;;;9.35;5.40;;;5.60;99.90;;;;;;5058180;28;20027;-85
2021/12/05 07:06:32;;;;;;;9.13;5.47;;;5.70;99.90;;;;;;5058230;28;20032;-84
2021/12/05 07:09:07;;;;;;;9.93;4.35;;;5.60;99.90;;;;;;5058471;28;20032;-84
2021/12/05 07:11:43;;;;;;;6.38;5.35;;;5.60;99.90;;;;;;5075697;28;20389;-83
2021/12/05 07:16:50;;;;;;;7.93;5.43;;;5.60;99.90;;;;;;5075591;28;20040;-84
2021/12/05 07:21:52;;;;;;;6.90;5.35;;;5.60;99.90;;;;;;5076038;28;20040;-84
2021/12/05 07:27:12;;;;;;;12.60;5.78;;;5.60;99.90;;;;;;5068580;28;20037;-84
2021/12/05 07:40:40;;;;;;;10.90;6.15;;;5.50;99.90;;;;;;5056206;28;20157;-84
2021/12/05 07:43:09;;;;;;;11.18;6.22;;;5.50;99.90;;;;;;5055761;28;20100;-84
2021/12/05 07:45:43;;;;;;;11.48;6.30;;;5.50;99.90;;;;;;5057584;28;20035;-86
2021/12/05 07:48:17;;;;;;;15.23;6.40;;;5.50;99.90;;;;;;5057387;28;20484;-84
2021/12/05 07:50:57;;;;;;;10.20;6.25;;;5.60;99.90;;;;;;5076201;28;20036;-84
2021/12/05 07:53:35;;;;;;;10.23;6.00;;;5.60;99.90;;;;;;5057286;28;20025;-86
2021/12/05 07:56:10;;;;;;;12.18;6.65;;;5.60;99.90;;;;;;5056052;28;20052;-83
2021/12/05 08:01:28;;;;;;;;;;;5.60;99.90;;;;;;5076086;28;20074;-83
2021/12/05 08:14:53;;;;;;;11.02;6.70;;;5.60;99.90;;;;;;5063139;28;20442;-83
2021/12/05 08:17:20;;;;;;;9.63;5.80;;;5.60;99.90;;;;;;5055639;28;20024;-83
2021/12/05 08:19:48;;;;;;;10.50;5.57;;;5.60;99.90;;;;;;5073796;28;20416;-83
2021/12/05 08:22:15;;;;;;;9.85;5.70;;;5.60;99.90;;;;;;5075072;28;20447;-83
2021/12/05 08:24:42;;;;;;;12.52;6.88;;;5.70;99.90;;;;;;5074363;28;20083;-83
2021/12/05 08:27:12;;;;;;;8.50;5.53;;;5.70;99.90;;;;;;5057231;28;20416;-83
2021/12/05 08:29:49;;;;;;;10.20;6.03;;;5.70;99.90;;;;;;5074629;28;20556;-83
2021/12/05 08:32:31;;;;;;;11.50;6.85;;;5.70;99.90;;;;;;5074537;28;20035;-84
2021/12/05 08:35:36;;;;;;;9.80;5.82;;;5.70;99.90;;;;;;5056093;28;20041;-84
2021/12/05 10:10:11;;;;;;;15.57;8.02;;;6.50;99.90;;;;;;5072958;28;20041;-80
2021/12/05 10:38:27;;;;;;;17.52;6.57;;;6.90;99.90;;;;;;5043602;28;20063;-83
2021/12/05 10:40:39;;;;;;;20.75;10.00;;;6.90;99.90;;;;;;5060086;28;20029;-79
2021/12/05 10:43:20;;;;;;;23.05;10.88;;;7.10;99.90;;;;;;5056405;28;20054;-76
2021/12/05 10:46:09;;;;;;;25.13;13.35;;;7.20;99.90;;;;;;5055753;28;20028;-79
2021/12/05 10:48:42;;;;;;;34.97;13.02;;;7.30;99.90;;;;;;5052749;28;20040;-80
2021/12/05 10:51:15;;;;;;;14.13;7.43;;;7.50;99.90;;;;;;5058194;28;20025;-79
2021/12/05 10:53:53;;;;;;;15.60;6.95;;;7.60;99.90;;;;;;5069073;28;20111;-79
2021/12/05 10:56:27;;;;;;;30.77;12.85;;;7.60;99.90;;;;;;5056220;28;20542;-79
2021/12/05 10:59:09;;;;;;;24.50;13.23;;;7.50;99.90;;;;;;5073601;28;20472;-79
2021/12/05 11:01:45;;;;;;;14.52;6.63;;;7.40;99.90;;;;;;5054771;28;20024;-79
2021/12/05 11:04:14;;;;;;;35.20;24.05;;;7.30;99.90;;;;;;5072980;28;20024;-80
2021/12/05 11:06:50;;;;;;;15.13;7.97;;;7.20;99.90;;;;;;5073385;28;20562;-79
2021/12/05 11:09:20;;;;;;;12.60;7.03;;;7.20;99.90;;;;;;5047150;28;20037;-79
2021/12/05 11:11:58;;;;;;;15.02;7.35;;;7.10;99.90;;;;;;5073465;28;20108;-80
2021/12/05 11:14:30;;;;;;;15.65;7.57;;;7.00;99.90;;;;;;5072024;28;20051;-80
2021/12/05 11:17:10;;;;;;;18.52;7.18;;;7.00;99.90;;;;;;5054048;28;20093;-80
2021/12/05 11:19:42;;;;;;;13.45;6.88;;;7.00;99.90;;;;;;5072080;28;20029;-80
2021/12/05 11:22:23;;;;;;;14.77;6.93;;;7.10;99.90;;;;;;5068955;28;20500;-79
2021/12/05 11:25:02;;;;;;;12.75;7.38;;;7.20;99.90;;;;;;5055330;28;20488;-80
2021/12/05 11:27:43;;;;;;;13.23;6.47;;;7.20;99.90;;;;;;5055115;28;20046;-79
2021/12/05 11:30:16;;;;;;;11.88;6.38;;;7.20;99.90;;;;;;5072629;28;20468;-80
2021/12/05 11:32:44;;;;;;;10.50;6.75;;;7.20;99.90;;;;;;5054047;28;20025;-80
2021/12/05 11:35:29;;;;;;;15.98;7.75;;;7.30;99.90;;;;;;5035220;28;20064;-80
2021/12/05 11:38:13;;;;;;;10.70;6.40;;;7.20;99.90;;;;;;5036369;28;20041;-80
2021/12/05 11:40:58;;;;;;;12.27;7.45;;;7.30;99.90;;;;;;5053730;28;20024;-80
2021/12/05 11:43:53;;;;;;;13.80;8.07;;;7.30;99.90;;;;;;5056448;28;20031;-79
2021/12/05 11:46:21;;;;;;;12.05;6.80;;;7.20;99.90;;;;;;5071323;28;20041;-80
2021/12/05 11:48:55;;;;;;;13.70;7.05;;;7.20;99.90;;;;;;5054952;28;20100;-81
2021/12/05 11:51:36;;;;;;;14.85;7.57;;;7.20;99.90;;;;;;5054271;28;20037;-79
2021/12/05 11:54:17;;;;;;;14.25;7.13;;;7.30;99.90;;;;;;5036611;28;20029;-80
2021/12/05 11:56:55;;;;;;;15.60;7.90;;;7.20;99.90;;;;;;5053653;28;20037;-79
2021/12/05 11:59:29;;;;;;;13.80;7.13;;;7.20;99.90;;;;;;5037060;28;20087;-80
2021/12/05 12:02:22;;;;;;;13.73;7.05;;;7.20;99.90;;;;;;5060026;28;20025;-80
2021/12/05 12:04:56;;;;;;;14.38;7.45;;;7.30;99.90;;;;;;5072309;28;20032;-81
2021/12/05 12:07:34;;;;;;;13.60;6.95;;;7.30;99.90;;;;;;5055818;28;20033;-81
2021/12/05 12:10:10;;;;;;;14.55;8.07;;;7.20;99.90;;;;;;5036532;28;20377;-80
2021/12/05 12:12:38;;;;;;;11.88;6.97;;;7.20;99.90;;;;;;5073249;28;20032;-81
2021/12/05 12:15:06;;;;;;;19.33;7.68;;;7.10;99.90;;;;;;5054501;28;20040;-80
2021/12/05 12:17:31;;;;;;;16.73;8.68;;;7.20;99.90;;;;;;5076001;28;20032;-81
2021/12/05 12:19:57;;;;;;;16.55;7.78;;;7.20;99.90;;;;;;5043776;28;20432;-80
2021/12/05 12:22:26;;;;;;;16.95;8.80;;;7.20;99.90;;;;;;5057710;28;20029;-80
2021/12/05 12:24:59;;;;;;;17.95;8.77;;;7.20;99.90;;;;;;5055354;28;20111;-79
2021/12/05 12:27:25;;;;;;;21.10;9.18;;;7.20;99.90;;;;;;5077727;28;20016;-80
2021/12/05 12:29:52;;;;;;;17.77;9.05;;;7.20;99.90;;;;;;5060641;28;20080;-80
2021/12/05 12:32:24;;;;;;;16.10;9.03;;;7.10;99.90;;;;;;5075437;28;20012;-80
2021/12/05 12:35:06;;;;;;;14.15;7.95;;;7.10;99.90;;;;;;5073320;28;20106;-80
2021/12/05 12:37:51;;;;;;;13.20;7.32;;;7.20;99.90;;;;;;5057774;28;20041;-81
2021/12/05 12:40:50;;;;;;;15.65;7.90;;;7.20;99.90;;;;;;5056609;28;20505;-80
2021/12/05 12:43:40;;;;;;;13.00;7.18;;;7.10;99.90;;;;;;5056322;28;20552;-79
2021/12/05 12:46:20;;;;;;;12.90;6.80;;;7.20;99.90;;;;;;5053326;28;20574;-80
2021/12/05 12:48:49;;;;;;;12.98;7.07;;;7.20;99.90;;;;;;5077733;28;20095;-80
2021/12/05 12:51:38;;;;;;;13.40;7.25;;;7.20;99.90;;;;;;5075364;28;20582;-80
2021/12/05 12:54:14;;;;;;;17.23;7.90;;;7.20;99.90;;;;;;5056255;28;20112;-80
2021/12/05 12:56:42;;;;;;;16.40;8.68;;;7.20;99.90;;;;;;5056337;28;20056;-80
2021/12/05 12:59:16;;;;;;;16.88;8.05;;;7.20;99.90;;;;;;5056801;28;20381;-81
2021/12/05 13:12:41;;;;;;;14.10;7.78;;;7.20;99.90;;;;;;5034812;28;20044;-80
2021/12/05 13:15:23;;;;;;;15.20;7.70;;;7.10;99.90;;;;;;5017379;28;20038;-78
2021/12/05 13:18:23;;;;;;;16.83;8.35;;;7.00;99.90;;;;;;5034497;28;20156;-78
2021/12/05 13:20:56;;;;;;;19.30;8.95;;;7.10;99.90;;;;;;5002247;28;20438;-81
2021/12/05 13:23:38;;;;;;;16.85;8.55;;;7.10;99.90;;;;;;5017125;28;20061;-79
2021/12/05 13:26:25;;;;;;;12.82;7.20;;;7.10;99.90;;;;;;5034302;28;20045;-79
2021/12/05 13:29:15;;;;;;;13.63;7.65;;;7.10;99.90;;;;;;5032782;28;20505;-79
2021/12/05 13:32:06;;;;;;;15.85;7.20;;;7.00;99.90;;;;;;5032920;28;20133;-79
2021/12/05 13:34:31;;;;;;;14.60;8.57;;;6.90;99.90;;;;;;5033811;28;20034;-80
2021/12/05 13:37:20;;;;;;;14.00;7.47;;;6.80;99.90;;;;;;5049859;28;20451;-80
2021/12/05 13:39:52;;;;;;;11.85;7.18;;;6.80;99.90;;;;;;5035365;28;20025;-79
2021/12/05 13:42:42;;;;;;;18.38;8.00;;;6.70;99.90;;;;;;5045794;28;20071;-79
2021/12/05 13:45:29;;;;;;;16.35;7.85;;;6.70;99.90;;;;;;5049869;28;20072;-79
2021/12/05 13:47:55;;;;;;;13.95;7.05;;;6.70;99.90;;;;;;5054421;28;20037;-80
2021/12/05 13:50:28;;;;;;;18.10;7.35;;;6.80;99.90;;;;;;5054640;28;20375;-79
2021/12/05 13:52:53;;;;;;;11.80;6.78;;;6.90;99.90;;;;;;5053945;28;20067;-79
2021/12/05 13:55:44;;;;;;;12.82;6.38;;;6.90;99.90;;;;;;5054888;28;20069;-79
2021/12/05 13:58:17;;;;;;;11.55;7.05;;;6.90;99.90;;;;;;5053623;28;20041;-80
2021/12/05 14:00:46;;;;;;;12.85;7.10;;;6.90;99.90;;;;;;5035674;28;20032;-80
2021/12/05 14:03:13;;;;;;;11.05;6.38;;;6.90;99.90;;;;;;5037410;28;20025;-80
2021/12/05 14:05:47;;;;;;;12.00;7.03;;;7.00;99.90;;;;;;5053287;28;20044;-80
2021/12/05 14:08:14;;;;;;;9.07;5.97;;;6.90;99.90;;;;;;5055775;28;20029;-80
2021/12/05 14:10:44;;;;;;;14.73;6.05;;;6.90;99.90;;;;;;5053778;28;20053;-80
2021/12/05 14:13:10;;;;;;;13.32;7.00;;;7.00;99.90;;;;;;5051595;28;20041;-80
2021/12/05 14:15:36;;;;;;;12.93;6.35;;;7.00;99.90;;;;;;5050122;28;20037;-78
2021/12/05 14:18:02;;;;;;;13.25;6.50;;;7.00;99.90;;;;;;5054813;28;20105;-79
2021/12/05 14:20:29;;;;;;;12.57;7.15;;;7.00;99.90;;;;;;5041639;28;20025;-80
2021/12/05 14:22:56;;;;;;;11.05;5.95;;;7.00;99.90;;;;;;5034847;28;20442;-79
2021/12/05 14:25:25;;;;;;;10.55;5.90;;;6.90;99.90;;;;;;5053689;28;20029;-80
2021/12/05 14:27:58;;;;;;;10.07;6.03;;;6.90;99.90;;;;;;5055853;28;20082;-79
2021/12/05 14:30:26;;;;;;;10.52;5.63;;;6.90;99.90;;;;;;5054929;28;20025;-79
2021/12/05 14:32:57;;;;;;;8.43;5.50;;;6.80;99.90;;;;;;5054429;28;20025;-80
2021/12/05 14:35:28;;;;;;;10.27;6.00;;;6.70;99.90;;;;;;5054444;28;20087;-80
2021/12/05 14:37:55;;;;;;;12.68;5.55;;;6.70;99.90;;;;;;5054062;28;20033;-80
2021/12/05 14:40:30;;;;;;;13.48;5.55;;;6.60;99.90;;;;;;5054654;28;20029;-81
2021/12/05 14:42:59;;;;;;;10.98;5.55;;;6.60;99.90;;;;;;5051574;28;20036;-80
2021/12/05 14:45:27;;;;;;;10.07;5.85;;;6.60;99.90;;;;;;5050716;28;20481;-80
2021/12/05 14:47:55;;;;;;;9.48;6.00;;;6.60;99.90;;;;;;5051485;28;20382;-80
2021/12/05 14:50:24;;;;;;;8.15;4.47;;;6.60;99.90;;;;;;5035588;28;20087;-80
2021/12/05 14:52:54;;;;;;;9.45;5.40;;;6.60;99.90;;;;;;5045833;28;20049;-80
2021/12/05 14:55:24;;;;;;;9.77;4.95;;;6.60;99.90;;;;;;5050843;28;20025;-79
2021/12/05 14:57:53;;;;;;;9.13;5.03;;;6.60;99.90;;;;;;5066926;28;20045;-79
2021/12/05 15:00:25;;;;;;;9.15;4.97;;;6.60;99.90;;;;;;5051599;28;20500;-79
2021/12/05 15:03:13;;;;;;;10.00;4.55;;;6.60;99.90;;;;;;5047371;28;20024;-79
2021/12/05 15:05:41;;;;;;;9.18;4.90;;;6.60;99.90;;;;;;5056217;28;20509;-79
2021/12/05 15:08:11;;;;;;;6.65;4.35;;;6.50;99.90;;;;;;5056622;28;20492;-80
2021/12/05 15:10:38;;;;;;;7.43;4.35;;;6.50;99.90;;;;;;5072161;28;20033;-80
2021/12/05 15:13:04;;;;;;;9.13;4.72;;;6.50;99.90;;;;;;5049284;28;20035;-80
2021/12/05 15:15:30;;;;;;;6.40;4.47;;;6.50;99.90;;;;;;5050132;28;20044;-80
2021/12/05 15:17:57;;;;;;;7.85;4.32;;;6.50;99.90;;;;;;5051183;28;20082;-80
2021/12/05 15:20:27;;;;;;;9.70;4.40;;;6.40;99.90;;;;;;5066092;28;20044;-82
2021/12/05 15:22:59;;;;;;;9.35;4.88;;;6.40;99.90;;;;;;5048009;28;20380;-80
2021/12/05 15:25:27;;;;;;;7.95;4.28;;;6.30;99.90;;;;;;5067153;28;20134;-80
2021/12/05 15:27:55;;;;;;;10.40;5.25;;;6.30;99.90;;;;;;5047102;28;20024;-79
2021/12/05 15:30:25;;;;;;;7.05;4.53;;;6.30;99.90;;;;;;5052261;28;20070;-80
2021/12/05 15:33:13;;;;;;;7.57;4.60;;;6.30;99.90;;;;;;5050092;28;20033;-79
2021/12/05 15:35:39;;;;;;;9.82;4.55;;;6.30;99.90;;;;;;5065937;28;20083;-78
2021/12/05 15:38:11;;;;;;;9.50;5.30;;;6.30;99.90;;;;;;5065709;28;20020;-81
2021/12/05 15:40:42;;;;;;;9.32;5.53;;;6.30;99.90;;;;;;5048775;28;20029;-80
2021/12/05 15:43:09;;;;;;;12.52;5.15;;;6.30;99.90;;;;;;5047469;28;20373;-79
2021/12/05 15:45:36;;;;;;;7.03;4.75;;;6.20;99.90;;;;;;5043984;28;20040;-78
2021/12/05 15:48:03;;;;;;;9.65;5.65;;;6.30;99.90;;;;;;5065036;28;20040;-79
2021/12/05 15:50:34;;;;;;;9.75;5.97;;;6.20;99.90;;;;;;5065878;28;20082;-79
2021/12/05 15:53:07;;;;;;;11.82;6.03;;;6.20;99.90;;;;;;5066694;28;20483;-79
2021/12/05 15:55:33;;;;;;;11.95;6.25;;;6.20;99.90;;;;;;5067489;28;20467;-79
2021/12/05 15:58:19;;;;;;;9.32;5.35;;;6.30;99.90;;;;;;5047281;28;20191;-79
2021/12/05 16:00:58;;;;;;;10.32;6.15;;;6.20;99.90;;;;;;5050788;28;20046;-80
2021/12/05 16:03:27;;;;;;;11.85;6.03;;;6.30;99.90;;;;;;5054887;28;20025;-80
2021/12/05 16:05:59;;;;;;;10.70;6.15;;;6.30;99.90;;;;;;5066653;28;20074;-79
2021/12/05 16:08:30;;;;;;;14.48;7.05;;;6.30;99.90;;;;;;5067286;28;20036;-80
2021/12/05 16:10:59;;;;;;;11.50;5.90;;;6.20;99.90;;;;;;5066153;28;20021;-80
2021/12/05 16:13:31;;;;;;;10.20;5.55;;;6.20;99.90;;;;;;5052564;28;20028;-80
2021/12/05 16:16:08;;;;;;;10.60;6.18;;;6.30;99.90;;;;;;5068764;28;20032;-79
2021/12/05 16:18:36;;;;;;;10.60;5.93;;;6.30;99.90;;;;;;5065637;28;20381;-79
2021/12/05 16:21:05;;;;;;;;;;;6.30;99.90;;;;;;5055367;28;20095;-80
2021/12/05 16:23:38;;;;;;;15.20;5.93;;;6.30;99.90;;;;;;5063647;28;19960;-79
2021/12/05 16:26:09;;;;;;;11.02;6.53;;;6.40;99.90;;;;;;5046398;28;20469;-80
2021/12/05 16:28:44;;;;;;;11.90;6.63;;;6.40;99.90;;;;;;5046091;28;20118;-80
2021/12/05 16:31:17;;;;;;;11.30;6.47;;;6.40;99.90;;;;;;5048165;28;20044;-80
2021/12/05 16:33:50;;;;;;;10.95;6.13;;;6.40;99.90;;;;;;5063298;28;20091;-81
2021/12/05 16:36:18;;;;;;;9.95;6.15;;;6.40;99.90;;;;;;5048913;28;20021;-81
2021/12/05 16:38:53;;;;;;;10.55;6.57;;;6.30;99.90;;;;;;5065122;28;20039;-79
2021/12/05 16:41:29;;;;;;;11.73;7.10;;;6.30;99.90;;;;;;5052390;28;20017;-83
2021/12/05 16:44:08;;;;;;;9.35;6.00;;;6.30;99.90;;;;;;5065421;28;20684;-82
2021/12/05 16:46:43;;;;;;;11.63;5.93;;;6.30;99.90;;;;;;5046035;28;20040;-81
2021/12/05 16:49:18;;;;;;;10.38;6.60;;;6.30;99.90;;;;;;5051031;28;20404;-81
2021/12/05 16:51:50;;;;;;;13.80;7.50;;;6.30;99.90;;;;;;5047475;28;20500;-80
2021/12/05 16:54:24;;;;;;;11.82;7.00;;;6.30;99.90;;;;;;5061292;28;20039;-81
2021/12/05 16:56:55;;;;;;;14.52;7.15;;;6.30;99.90;;;;;;5067827;28;20149;-80
2021/12/05 16:59:41;;;;;;;14.02;7.72;;;6.30;99.90;;;;;;5083650;28;20029;-80
2021/12/05 17:02:24;;;;;;;10.48;7.03;;;6.30;99.90;;;;;;5082370;28;20017;-82
2021/12/05 17:05:07;;;;;;;13.43;7.53;;;6.30;99.90;;;;;;5090181;28;20041;-79
2021/12/05 17:08:02;;;;;;;11.55;6.60;;;6.30;99.90;;;;;;5069583;28;20488;-84
2021/12/05 17:10:29;;;;;;;11.85;6.88;;;6.30;99.90;;;;;;5071297;28;20031;-82
2021/12/05 17:13:34;;;;;;;13.23;6.97;;;6.20;99.90;;;;;;5054750;28;20021;-85
2021/12/05 17:16:13;;;;;;;12.75;7.38;;;6.20;99.90;;;;;;5071605;28;20033;-84
2021/12/05 17:18:39;;;;;;;12.10;7.35;;;6.30;99.90;;;;;;5056572;28;20040;-82
2021/12/05 17:21:21;;;;;;;12.98;7.82;;;6.30;99.90;;;;;;5070930;28;20040;-84
2021/12/05 17:24:10;;;;;;;14.23;6.78;;;6.30;99.90;;;;;;5090133;28;20025;-83
2021/12/05 17:26:39;;;;;;;13.95;7.82;;;6.20;99.90;;;;;;5081235;28;20040;-82
2021/12/05 17:29:12;;;;;;;14.05;7.28;;;6.20;99.90;;;;;;5094147;28;20069;-85
2021/12/05 17:31:42;;;;;;;13.52;7.55;;;6.20;99.90;;;;;;5079826;28;20532;-81
2021/12/05 17:34:23;;;;;;;16.88;7.35;;;6.10;99.90;;;;;;5074665;28;20021;-83
2021/12/05 17:36:58;;;;;;;13.50;7.65;;;6.10;99.90;;;;;;5078784;28;20050;-84
2021/12/05 17:39:28;;;;;;;14.88;8.13;;;6.10;99.90;;;;;;5074357;28;20402;-84
2021/12/05 17:41:58;;;;;;;14.80;8.52;;;6.20;99.90;;;;;;5069910;28;20023;-83
2021/12/05 17:44:25;;;;;;;12.88;7.68;;;6.20;99.90;;;;;;5054043;28;20025;-83
2021/12/05 17:46:53;;;;;;;18.30;8.50;;;6.20;99.90;;;;;;5052913;28;20036;-81
2021/12/05 17:49:21;;;;;;;16.48;9.07;;;6.30;99.90;;;;;;5057136;28;20031;-80
2021/12/05 17:51:48;;;;;;;14.77;7.65;;;6.30;99.90;;;;;;5076513;28;20025;-82
2021/12/05 17:54:32;;;;;;;15.55;8.63;;;6.30;99.90;;;;;;5059874;28;20048;-82
2021/12/05 17:57:11;;;;;;;13.05;7.60;;;6.30;99.90;;;;;;5072223;28;20516;-82
2021/12/05 18:04:50;;;;;;;20.60;8.55;;;6.20;99.90;;;;;;5071732;28;20040;-82
2021/12/05 18:07:17;;;;;;;13.70;7.47;;;6.10;99.90;;;;;;5052380;28;20028;-82
2021/12/05 18:09:44;;;;;;;18.75;8.45;;;6.00;99.90;;;;;;5070406;28;20388;-83
2021/12/05 18:12:17;;;;;;;20.48;8.52;;;6.00;99.90;;;;;;5075395;28;20021;-85
2021/12/05 18:14:43;;;;;;;13.32;7.85;;;6.00;99.90;;;;;;5049080;28;20389;-84
2021/12/05 18:17:10;;;;;;;14.23;8.48;;;5.90;99.90;;;;;;5042582;28;20048;-83
2021/12/05 18:19:37;;;;;;;17.57;8.33;;;5.90;99.90;;;;;;5052601;28;20425;-84
2021/12/05 18:22:04;;;;;;;15.73;8.38;;;5.90;99.90;;;;;;5053792;28;20056;-82
2021/12/05 18:24:31;;;;;;;19.07;9.27;;;5.90;99.90;;;;;;5076759;28;20021;-83
2021/12/05 18:26:57;;;;;;;20.50;10.00;;;5.90;99.90;;;;;;5066831;28;20286;-80
2021/12/05 18:29:23;;;;;;;20.77;9.90;;;5.90;99.90;;;;;;5050271;28;20041;-84
2021/12/05 18:31:49;;;;;;;14.10;8.55;;;5.90;99.90;;;;;;5045762;28;20518;-83
2021/12/05 18:34:20;;;;;;;17.58;9.13;;;5.80;99.90;;;;;;5069677;28;20025;-81
2021/12/05 18:36:48;;;;;;;17.08;8.80;;;5.80;99.90;;;;;;5047200;28;20067;-82
2021/12/05 18:39:26;;;;;;;16.17;9.00;;;5.80;99.90;;;;;;5068224;28;20388;-83
2021/12/05 18:41:55;;;;;;;16.67;8.13;;;5.80;99.90;;;;;;5068741;28;20485;-83
2021/12/05 18:44:26;;;;;;;15.35;8.68;;;5.80;99.90;;;;;;5052078;28;20052;-83
2021/12/05 18:46:54;;;;;;;17.52;9.30;;;5.80;99.90;;;;;;5068648;28;20067;-83
2021/12/05 18:49:26;;;;;;;15.95;8.65;;;5.90;99.90;;;;;;5054200;28;20040;-84